sensor_id;sensor_type;location;lat;lon;timestamp;temperature;humidity
58554;DHT22;48119;53.218;6.576;2023-11-22T00:01:29;9.50;99.90
58554;DHT22;48119;53.218;6.576;2023-11-22T00:03:55;9.50;99.90
58554;DHT22;48119;53.218;6.576;2023-11-22T00:06:21;9.50;99.90
58554;DHT22;48119;53.218;6.576;2023-11-22T00:08:47;9.50;99.90
58554;DHT22;48119;53.218;6.576;2023-11-22T00:11:13;9.50;99.90
58554;DHT22;48119;53.218;6.576;2023-11-22T00:13:41;9.50;99.90
58554;DHT22;48119;53.218;6.576;2023-11-22T00:16:07;9.50;99.90
58554;DHT22;48119;53.218;6.576;2023-11-22T00:18:35;9.50;99.90
58554;DHT22;48119;53.218;6.576;2023-11-22T00:21:03;9.50;99.90
58554;DHT22;48119;53.218;6.576;2023-11-22T00:23:29;9.50;99.90
58554;DHT22;48119;53.218;6.576;2023-11-22T00:25:55;9.50;99.90
58554;DHT22;48119;53.218;6.576;2023-11-22T00:28:23;9.50;99.90
58554;DHT22;48119;53.218;6.576;2023-11-22T00:30:48;9.50;99.90
58554;DHT22;48119;53.218;6.576;2023-11-22T00:33:14;9.50;99.90
58554;DHT22;48119;53.218;6.576;2023-11-22T00:35:40;9.50;99.90
58554;DHT22;48119;53.218;6.576;2023-11-22T00:38:06;9.50;99.90
58554;DHT22;48119;53.218;6.576;2023-11-22T00:40:32;9.50;99.90
58554;DHT22;48119;53.218;6.576;2023-11-22T00:42:57;9.50;99.90
58554;DHT22;48119;53.218;6.576;2023-11-22T00:45:23;9.50;99.90
58554;DHT22;48119;53.218;6.576;2023-11-22T00:47:50;9.40;99.90
58554;DHT22;48119;53.218;6.576;2023-11-22T00:50:18;9.50;99.90
58554;DHT22;48119;53.218;6.576;2023-11-22T00:52:47;9.50;99.90
58554;DHT22;48119;53.218;6.576;2023-11-22T00:55:13;9.40;99.90
58554;DHT22;48119;53.218;6.576;2023-11-22T00:57:39;9.40;99.90
58554;DHT22;48119;53.218;6.576;2023-11-22T01:00:07;9.40;99.90
58554;DHT22;48119;53.218;6.576;2023-11-22T01:02:37;9.40;99.90
58554;DHT22;48119;53.218;6.576;2023-11-22T01:05:07;9.40;99.90
58554;DHT22;48119;53.218;6.576;2023-11-22T01:07:37;9.40;99.90
58554;DHT22;48119;53.218;6.576;2023-11-22T01:10:03;9.30;99.90
58554;DHT22;48119;53.218;6.576;2023-11-22T01:12:29;9.30;99.90
58554;DHT22;48119;53.218;6.576;2023-11-22T01:14:55;9.30;99.90
58554;DHT22;48119;53.218;6.576;2023-11-22T01:17:21;9.30;99.90
58554;DHT22;48119;53.218;6.576;2023-11-22T01:19:46;9.30;99.90
58554;DHT22;48119;53.218;6.576;2023-11-22T01:22:12;9.20;99.90
58554;DHT22;48119;53.218;6.576;2023-11-22T01:24:38;9.30;99.90
58554;DHT22;48119;53.218;6.576;2023-11-22T01:27:04;9.30;99.90
58554;DHT22;48119;53.218;6.576;2023-11-22T01:29:30;9.30;99.90
58554;DHT22;48119;53.218;6.576;2023-11-22T01:31:56;9.30;99.90
58554;DHT22;48119;53.218;6.576;2023-11-22T01:34:22;9.30;99.90
58554;DHT22;48119;53.218;6.576;2023-11-22T01:36:51;9.20;99.90
58554;DHT22;48119;53.218;6.576;2023-11-22T01:39:17;9.20;99.90
58554;DHT22;48119;53.218;6.576;2023-11-22T01:41:45;9.20;99.90
58554;DHT22;48119;53.218;6.576;2023-11-22T01:44:11;9.20;99.90
58554;DHT22;48119;53.218;6.576;2023-11-22T01:46:38;9.20;99.90
58554;DHT22;48119;53.218;6.576;2023-11-22T01:49:04;9.20;99.90
58554;DHT22;48119;53.218;6.576;2023-11-22T01:51:30;9.10;99.90
58554;DHT22;48119;53.218;6.576;2023-11-22T01:53:57;9.10;99.90
58554;DHT22;48119;53.218;6.576;2023-11-22T01:56:25;9.10;99.90
58554;DHT22;48119;53.218;6.576;2023-11-22T01:58:53;9.10;99.90
58554;DHT22;48119;53.218;6.576;2023-11-22T02:01:20;9.10;99.90
58554;DHT22;48119;53.218;6.576;2023-11-22T02:03:46;9.10;99.90
58554;DHT22;48119;53.218;6.576;2023-11-22T02:06:18;9.00;99.90
58554;DHT22;48119;53.218;6.576;2023-11-22T02:08:43;8.90;99.90
58554;DHT22;48119;53.218;6.576;2023-11-22T02:11:09;8.90;99.90
58554;DHT22;48119;53.218;6.576;2023-11-22T02:13:35;9.00;99.90
58554;DHT22;48119;53.218;6.576;2023-11-22T02:16:02;9.00;99.90
58554;DHT22;48119;53.218;6.576;2023-11-22T02:18:29;9.00;99.90
58554;DHT22;48119;53.218;6.576;2023-11-22T02:20:55;9.00;99.90
58554;DHT22;48119;53.218;6.576;2023-11-22T02:23:21;9.00;99.90
58554;DHT22;48119;53.218;6.576;2023-11-22T02:25:47;9.00;99.90
58554;DHT22;48119;53.218;6.576;2023-11-22T02:28:13;9.00;99.90
58554;DHT22;48119;53.218;6.576;2023-11-22T02:30:40;9.00;99.90
58554;DHT22;48119;53.218;6.576;2023-11-22T02:33:06;9.00;99.90
58554;DHT22;48119;53.218;6.576;2023-11-22T02:35:32;8.90;99.90
58554;DHT22;48119;53.218;6.576;2023-11-22T02:37:59;8.90;99.90
58554;DHT22;48119;53.218;6.576;2023-11-22T02:40:25;8.90;99.90
58554;DHT22;48119;53.218;6.576;2023-11-22T02:42:52;8.90;99.90
58554;DHT22;48119;53.218;6.576;2023-11-22T02:45:28;8.90;99.90
58554;DHT22;48119;53.218;6.576;2023-11-22T02:47:54;8.90;99.90
58554;DHT22;48119;53.218;6.576;2023-11-22T02:50:20;8.80;99.90
58554;DHT22;48119;53.218;6.576;2023-11-22T02:52:46;8.80;99.90
58554;DHT22;48119;53.218;6.576;2023-11-22T02:55:11;8.80;99.90
58554;DHT22;48119;53.218;6.576;2023-11-22T02:57:38;8.80;99.90
58554;DHT22;48119;53.218;6.576;2023-11-22T03:00:08;8.80;99.90
58554;DHT22;48119;53.218;6.576;2023-11-22T03:02:34;8.80;99.90
58554;DHT22;48119;53.218;6.576;2023-11-22T03:05:00;8.80;99.90
58554;DHT22;48119;53.218;6.576;2023-11-22T03:07:26;8.70;99.90
58554;DHT22;48119;53.218;6.576;2023-11-22T03:09:53;8.70;99.90
58554;DHT22;48119;53.218;6.576;2023-11-22T03:12:19;8.70;99.90
58554;DHT22;48119;53.218;6.576;2023-11-22T03:14:46;8.70;99.90
58554;DHT22;48119;53.218;6.576;2023-11-22T03:17:12;8.60;99.90
58554;DHT22;48119;53.218;6.576;2023-11-22T03:19:39;8.60;99.90
58554;DHT22;48119;53.218;6.576;2023-11-22T03:22:08;8.60;99.90
58554;DHT22;48119;53.218;6.576;2023-11-22T03:24:34;8.60;99.90
58554;DHT22;48119;53.218;6.576;2023-11-22T03:27:02;8.60;99.90
58554;DHT22;48119;53.218;6.576;2023-11-22T03:29:29;8.60;99.90
58554;DHT22;48119;53.218;6.576;2023-11-22T03:31:55;8.60;99.90
58554;DHT22;48119;53.218;6.576;2023-11-22T03:34:21;8.60;99.90
58554;DHT22;48119;53.218;6.576;2023-11-22T03:36:47;8.60;99.90
58554;DHT22;48119;53.218;6.576;2023-11-22T03:39:15;8.50;99.90
58554;DHT22;48119;53.218;6.576;2023-11-22T03:41:41;8.50;99.90
58554;DHT22;48119;53.218;6.576;2023-11-22T03:44:07;8.50;99.90
58554;DHT22;48119;53.218;6.576;2023-11-22T03:46:39;8.40;99.90
58554;DHT22;48119;53.218;6.576;2023-11-22T03:49:06;8.50;99.90
58554;DHT22;48119;53.218;6.576;2023-11-22T03:51:35;8.40;99.90
58554;DHT22;48119;53.218;6.576;2023-11-22T03:54:04;8.40;99.90
58554;DHT22;48119;53.218;6.576;2023-11-22T03:56:30;8.40;99.90
58554;DHT22;48119;53.218;6.576;2023-11-22T03:58:56;8.50;99.90
58554;DHT22;48119;53.218;6.576;2023-11-22T04:01:22;8.50;99.90
58554;DHT22;48119;53.218;6.576;2023-11-22T04:03:48;8.50;99.90
58554;DHT22;48119;53.218;6.576;2023-11-22T04:06:17;8.40;99.90
58554;DHT22;48119;53.218;6.576;2023-11-22T04:08:45;8.50;99.90
58554;DHT22;48119;53.218;6.576;2023-11-22T04:11:12;8.40;99.90
58554;DHT22;48119;53.218;6.576;2023-11-22T04:13:38;8.50;99.90
58554;DHT22;48119;53.218;6.576;2023-11-22T04:16:04;8.50;99.90
58554;DHT22;48119;53.218;6.576;2023-11-22T04:18:32;8.40;99.90
58554;DHT22;48119;53.218;6.576;2023-11-22T04:20:58;8.40;99.90
58554;DHT22;48119;53.218;6.576;2023-11-22T04:23:26;8.40;99.90
58554;DHT22;48119;53.218;6.576;2023-11-22T04:25:52;8.40;99.90
58554;DHT22;48119;53.218;6.576;2023-11-22T04:28:18;8.40;99.90
58554;DHT22;48119;53.218;6.576;2023-11-22T04:30:44;8.40;99.90
58554;DHT22;48119;53.218;6.576;2023-11-22T04:33:09;8.40;99.90
58554;DHT22;48119;53.218;6.576;2023-11-22T04:35:36;8.40;99.90
58554;DHT22;48119;53.218;6.576;2023-11-22T04:38:04;8.30;99.90
58554;DHT22;48119;53.218;6.576;2023-11-22T04:40:30;8.30;99.90
58554;DHT22;48119;53.218;6.576;2023-11-22T04:42:56;8.30;99.90
58554;DHT22;48119;53.218;6.576;2023-11-22T04:45:21;8.30;99.90
58554;DHT22;48119;53.218;6.576;2023-11-22T04:47:48;8.30;99.90
58554;DHT22;48119;53.218;6.576;2023-11-22T04:50:13;8.40;99.90
58554;DHT22;48119;53.218;6.576;2023-11-22T04:52:39;8.30;99.90
58554;DHT22;48119;53.218;6.576;2023-11-22T04:55:05;8.30;99.90
58554;DHT22;48119;53.218;6.576;2023-11-22T04:57:31;8.30;99.90
58554;DHT22;48119;53.218;6.576;2023-11-22T04:59:57;8.30;99.90
58554;DHT22;48119;53.218;6.576;2023-11-22T05:02:23;8.30;99.90
58554;DHT22;48119;53.218;6.576;2023-11-22T05:04:48;8.30;99.90
58554;DHT22;48119;53.218;6.576;2023-11-22T05:07:15;8.30;99.90
58554;DHT22;48119;53.218;6.576;2023-11-22T05:09:41;8.30;99.90
58554;DHT22;48119;53.218;6.576;2023-11-22T05:12:11;8.30;99.90
58554;DHT22;48119;53.218;6.576;2023-11-22T05:14:37;8.30;99.90
58554;DHT22;48119;53.218;6.576;2023-11-22T05:17:04;8.30;99.90
58554;DHT22;48119;53.218;6.576;2023-11-22T05:19:30;8.30;99.90
58554;DHT22;48119;53.218;6.576;2023-11-22T05:21:57;8.30;99.90
58554;DHT22;48119;53.218;6.576;2023-11-22T05:24:23;8.20;99.90
58554;DHT22;48119;53.218;6.576;2023-11-22T05:26:49;8.20;99.90
58554;DHT22;48119;53.218;6.576;2023-11-22T05:29:15;8.30;99.90
58554;DHT22;48119;53.218;6.576;2023-11-22T05:31:40;8.30;99.90
58554;DHT22;48119;53.218;6.576;2023-11-22T05:34:06;8.30;99.90
58554;DHT22;48119;53.218;6.576;2023-11-22T05:36:32;8.30;99.90
58554;DHT22;48119;53.218;6.576;2023-11-22T05:38:58;8.20;99.90
58554;DHT22;48119;53.218;6.576;2023-11-22T05:41:29;8.20;99.90
58554;DHT22;48119;53.218;6.576;2023-11-22T05:43:54;8.20;99.90
58554;DHT22;48119;53.218;6.576;2023-11-22T05:46:21;8.20;99.90
58554;DHT22;48119;53.218;6.576;2023-11-22T05:48:54;8.20;99.90
58554;DHT22;48119;53.218;6.576;2023-11-22T05:51:20;8.20;99.90
58554;DHT22;48119;53.218;6.576;2023-11-22T05:53:47;8.20;99.90
58554;DHT22;48119;53.218;6.576;2023-11-22T05:56:13;8.20;99.90
58554;DHT22;48119;53.218;6.576;2023-11-22T05:58:40;8.20;99.90
58554;DHT22;48119;53.218;6.576;2023-11-22T06:01:06;8.20;99.90
58554;DHT22;48119;53.218;6.576;2023-11-22T06:03:32;8.20;99.90
58554;DHT22;48119;53.218;6.576;2023-11-22T06:05:59;8.10;99.90
58554;DHT22;48119;53.218;6.576;2023-11-22T06:08:24;8.10;99.90
58554;DHT22;48119;53.218;6.576;2023-11-22T06:10:50;8.10;99.90
58554;DHT22;48119;53.218;6.576;2023-11-22T06:13:17;8.10;99.90
58554;DHT22;48119;53.218;6.576;2023-11-22T06:15:43;8.00;99.90
58554;DHT22;48119;53.218;6.576;2023-11-22T06:18:09;8.10;99.90
58554;DHT22;48119;53.218;6.576;2023-11-22T06:20:35;8.10;99.90
58554;DHT22;48119;53.218;6.576;2023-11-22T06:23:00;8.10;99.90
58554;DHT22;48119;53.218;6.576;2023-11-22T06:25:26;8.10;99.90
58554;DHT22;48119;53.218;6.576;2023-11-22T06:27:52;8.10;99.90
58554;DHT22;48119;53.218;6.576;2023-11-22T06:30:18;8.00;99.90
58554;DHT22;48119;53.218;6.576;2023-11-22T06:32:44;8.00;99.90
58554;DHT22;48119;53.218;6.576;2023-11-22T06:35:10;8.00;99.90
58554;DHT22;48119;53.218;6.576;2023-11-22T06:37:43;8.00;99.90
58554;DHT22;48119;53.218;6.576;2023-11-22T06:40:10;7.90;99.90
58554;DHT22;48119;53.218;6.576;2023-11-22T06:42:38;7.90;99.90
58554;DHT22;48119;53.218;6.576;2023-11-22T06:45:07;7.90;99.90
58554;DHT22;48119;53.218;6.576;2023-11-22T06:47:38;7.90;99.90
58554;DHT22;48119;53.218;6.576;2023-11-22T06:50:04;7.80;99.90
58554;DHT22;48119;53.218;6.576;2023-11-22T06:52:35;7.80;99.90
58554;DHT22;48119;53.218;6.576;2023-11-22T06:55:02;7.80;99.90
58554;DHT22;48119;53.218;6.576;2023-11-22T06:57:28;7.80;99.90
58554;DHT22;48119;53.218;6.576;2023-11-22T06:59:57;7.70;99.90
58554;DHT22;48119;53.218;6.576;2023-11-22T07:02:23;7.70;99.90
58554;DHT22;48119;53.218;6.576;2023-11-22T07:04:50;7.70;99.90
58554;DHT22;48119;53.218;6.576;2023-11-22T07:07:15;7.70;99.90
58554;DHT22;48119;53.218;6.576;2023-11-22T07:09:44;7.60;99.90
58554;DHT22;48119;53.218;6.576;2023-11-22T07:12:12;7.60;99.90
58554;DHT22;48119;53.218;6.576;2023-11-22T07:14:38;7.60;99.90
58554;DHT22;48119;53.218;6.576;2023-11-22T07:17:04;7.60;99.90
58554;DHT22;48119;53.218;6.576;2023-11-22T07:19:32;7.60;99.90
58554;DHT22;48119;53.218;6.576;2023-11-22T07:22:04;7.60;99.90
58554;DHT22;48119;53.218;6.576;2023-11-22T07:24:30;7.60;99.90
58554;DHT22;48119;53.218;6.576;2023-11-22T07:27:00;7.60;99.90
58554;DHT22;48119;53.218;6.576;2023-11-22T07:29:26;7.60;99.90
58554;DHT22;48119;53.218;6.576;2023-11-22T07:31:54;7.60;99.90
58554;DHT22;48119;53.218;6.576;2023-11-22T07:34:22;7.60;99.90
58554;DHT22;48119;53.218;6.576;2023-11-22T07:36:48;7.60;99.90
58554;DHT22;48119;53.218;6.576;2023-11-22T07:39:14;7.70;99.90
58554;DHT22;48119;53.218;6.576;2023-11-22T07:41:39;7.70;99.90
58554;DHT22;48119;53.218;6.576;2023-11-22T07:44:05;7.70;99.90
58554;DHT22;48119;53.218;6.576;2023-11-22T07:46:31;7.70;99.90
58554;DHT22;48119;53.218;6.576;2023-11-22T07:48:57;7.70;99.90
58554;DHT22;48119;53.218;6.576;2023-11-22T07:51:23;7.80;99.90
58554;DHT22;48119;53.218;6.576;2023-11-22T07:53:49;7.70;99.90
58554;DHT22;48119;53.218;6.576;2023-11-22T07:56:15;7.70;99.90
58554;DHT22;48119;53.218;6.576;2023-11-22T07:58:42;7.80;99.90
58554;DHT22;48119;53.218;6.576;2023-11-22T08:01:07;7.80;99.90
58554;DHT22;48119;53.218;6.576;2023-11-22T08:03:39;7.80;99.90
58554;DHT22;48119;53.218;6.576;2023-11-22T08:06:09;7.80;99.90
58554;DHT22;48119;53.218;6.576;2023-11-22T08:08:36;7.80;99.90
58554;DHT22;48119;53.218;6.576;2023-11-22T08:11:05;7.70;99.90
58554;DHT22;48119;53.218;6.576;2023-11-22T08:13:41;7.70;99.90
58554;DHT22;48119;53.218;6.576;2023-11-22T08:16:09;7.70;99.90
58554;DHT22;48119;53.218;6.576;2023-11-22T08:18:34;7.70;99.90
58554;DHT22;48119;53.218;6.576;2023-11-22T08:21:00;7.80;99.90
58554;DHT22;48119;53.218;6.576;2023-11-22T08:23:26;7.80;99.90
58554;DHT22;48119;53.218;6.576;2023-11-22T08:25:59;7.80;99.90
58554;DHT22;48119;53.218;6.576;2023-11-22T08:28:25;7.80;99.90
58554;DHT22;48119;53.218;6.576;2023-11-22T08:30:51;7.80;99.90
58554;DHT22;48119;53.218;6.576;2023-11-22T08:33:17;7.80;99.90
58554;DHT22;48119;53.218;6.576;2023-11-22T08:35:43;7.80;99.90
58554;DHT22;48119;53.218;6.576;2023-11-22T08:38:09;7.90;99.90
58554;DHT22;48119;53.218;6.576;2023-11-22T08:40:35;7.80;99.90
58554;DHT22;48119;53.218;6.576;2023-11-22T08:43:04;7.90;99.90
58554;DHT22;48119;53.218;6.576;2023-11-22T08:45:30;7.80;99.90
58554;DHT22;48119;53.218;6.576;2023-11-22T08:47:57;7.80;99.90
58554;DHT22;48119;53.218;6.576;2023-11-22T08:50:23;7.80;99.90
58554;DHT22;48119;53.218;6.576;2023-11-22T08:52:49;7.80;99.90
58554;DHT22;48119;53.218;6.576;2023-11-22T08:55:19;7.80;99.90
58554;DHT22;48119;53.218;6.576;2023-11-22T08:57:50;7.80;99.90
58554;DHT22;48119;53.218;6.576;2023-11-22T09:00:20;7.80;99.90
58554;DHT22;48119;53.218;6.576;2023-11-22T09:02:51;7.80;99.90
58554;DHT22;48119;53.218;6.576;2023-11-22T09:05:17;7.90;99.90
58554;DHT22;48119;53.218;6.576;2023-11-22T09:07:44;7.90;99.90
58554;DHT22;48119;53.218;6.576;2023-11-22T09:10:10;7.90;99.90
58554;DHT22;48119;53.218;6.576;2023-11-22T09:12:42;7.90;99.90
58554;DHT22;48119;53.218;6.576;2023-11-22T09:15:09;7.90;99.90
58554;DHT22;48119;53.218;6.576;2023-11-22T09:17:39;7.90;99.90
58554;DHT22;48119;53.218;6.576;2023-11-22T09:20:12;8.00;99.90
58554;DHT22;48119;53.218;6.576;2023-11-22T09:22:48;7.90;99.90
58554;DHT22;48119;53.218;6.576;2023-11-22T09:25:22;8.00;99.90
58554;DHT22;48119;53.218;6.576;2023-11-22T09:27:49;8.00;99.90
58554;DHT22;48119;53.218;6.576;2023-11-22T09:30:20;8.00;99.90
58554;DHT22;48119;53.218;6.576;2023-11-22T09:33:02;8.00;99.90
58554;DHT22;48119;53.218;6.576;2023-11-22T09:35:28;8.00;99.90
58554;DHT22;48119;53.218;6.576;2023-11-22T09:37:55;8.00;99.90
58554;DHT22;48119;53.218;6.576;2023-11-22T09:40:24;8.00;99.90
58554;DHT22;48119;53.218;6.576;2023-11-22T09:42:52;8.10;99.90
58554;DHT22;48119;53.218;6.576;2023-11-22T09:45:20;8.10;99.90
58554;DHT22;48119;53.218;6.576;2023-11-22T09:47:46;8.10;99.90
58554;DHT22;48119;53.218;6.576;2023-11-22T09:50:19;8.10;99.90
58554;DHT22;48119;53.218;6.576;2023-11-22T09:52:50;8.10;99.90
58554;DHT22;48119;53.218;6.576;2023-11-22T09:55:16;8.10;99.90
58554;DHT22;48119;53.218;6.576;2023-11-22T09:57:43;8.10;99.90
58554;DHT22;48119;53.218;6.576;2023-11-22T10:00:11;8.20;99.90
58554;DHT22;48119;53.218;6.576;2023-11-22T10:02:41;8.20;99.90
58554;DHT22;48119;53.218;6.576;2023-11-22T10:05:08;8.20;99.90
58554;DHT22;48119;53.218;6.576;2023-11-22T10:07:37;8.20;99.90
58554;DHT22;48119;53.218;6.576;2023-11-22T10:10:04;8.20;99.90
58554;DHT22;48119;53.218;6.576;2023-11-22T10:12:36;8.20;99.90
58554;DHT22;48119;53.218;6.576;2023-11-22T10:15:16;8.20;99.90
58554;DHT22;48119;53.218;6.576;2023-11-22T10:18:10;8.20;99.90
58554;DHT22;48119;53.218;6.576;2023-11-22T10:20:40;8.20;99.90
58554;DHT22;48119;53.218;6.576;2023-11-22T10:23:10;8.20;99.90
58554;DHT22;48119;53.218;6.576;2023-11-22T10:25:43;8.30;99.90
58554;DHT22;48119;53.218;6.576;2023-11-22T10:28:09;8.40;99.90
58554;DHT22;48119;53.218;6.576;2023-11-22T10:30:34;8.40;99.90
58554;DHT22;48119;53.218;6.576;2023-11-22T10:33:02;8.40;99.90
58554;DHT22;48119;53.218;6.576;2023-11-22T10:35:28;8.40;99.90
58554;DHT22;48119;53.218;6.576;2023-11-22T10:37:55;8.40;99.90
58554;DHT22;48119;53.218;6.576;2023-11-22T10:40:20;8.40;99.90
58554;DHT22;48119;53.218;6.576;2023-11-22T10:42:48;8.40;99.90
58554;DHT22;48119;53.218;6.576;2023-11-22T10:45:17;8.50;99.90
58554;DHT22;48119;53.218;6.576;2023-11-22T10:47:44;8.50;99.90
58554;DHT22;48119;53.218;6.576;2023-11-22T10:50:10;8.50;99.90
58554;DHT22;48119;53.218;6.576;2023-11-22T10:52:40;8.50;99.90
58554;DHT22;48119;53.218;6.576;2023-11-22T10:55:06;8.50;99.90
58554;DHT22;48119;53.218;6.576;2023-11-22T10:57:37;8.50;99.90
58554;DHT22;48119;53.218;6.576;2023-11-22T11:00:04;8.50;99.90
58554;DHT22;48119;53.218;6.576;2023-11-22T11:02:41;8.50;99.90
58554;DHT22;48119;53.218;6.576;2023-11-22T11:05:31;8.50;99.90
58554;DHT22;48119;53.218;6.576;2023-11-22T11:08:07;8.60;99.90
58554;DHT22;48119;53.218;6.576;2023-11-22T11:10:43;8.60;99.90
58554;DHT22;48119;53.218;6.576;2023-11-22T11:13:11;8.60;99.90
58554;DHT22;48119;53.218;6.576;2023-11-22T11:15:39;8.70;99.90
58554;DHT22;48119;53.218;6.576;2023-11-22T11:18:13;8.70;99.90
58554;DHT22;48119;53.218;6.576;2023-11-22T11:20:56;8.70;99.90
58554;DHT22;48119;53.218;6.576;2023-11-22T11:23:26;8.80;99.90
58554;DHT22;48119;53.218;6.576;2023-11-22T11:25:54;8.80;99.90
58554;DHT22;48119;53.218;6.576;2023-11-22T11:28:20;8.80;99.90
58554;DHT22;48119;53.218;6.576;2023-11-22T11:30:47;8.80;99.90
58554;DHT22;48119;53.218;6.576;2023-11-22T11:33:18;8.80;99.90
58554;DHT22;48119;53.218;6.576;2023-11-22T11:35:49;8.90;99.90
58554;DHT22;48119;53.218;6.576;2023-11-22T11:38:17;8.90;99.90
58554;DHT22;48119;53.218;6.576;2023-11-22T11:40:49;9.00;99.90
58554;DHT22;48119;53.218;6.576;2023-11-22T11:43:17;9.00;99.90
58554;DHT22;48119;53.218;6.576;2023-11-22T11:45:47;9.00;99.90
58554;DHT22;48119;53.218;6.576;2023-11-22T11:48:14;9.00;99.90
58554;DHT22;48119;53.218;6.576;2023-11-22T11:50:43;9.00;99.90
58554;DHT22;48119;53.218;6.576;2023-11-22T11:53:09;9.00;99.90
58554;DHT22;48119;53.218;6.576;2023-11-22T11:55:38;9.00;99.90
58554;DHT22;48119;53.218;6.576;2023-11-22T11:58:07;9.00;99.90
58554;DHT22;48119;53.218;6.576;2023-11-22T12:00:36;9.00;99.90
58554;DHT22;48119;53.218;6.576;2023-11-22T12:03:06;9.00;99.90
58554;DHT22;48119;53.218;6.576;2023-11-22T12:05:33;9.00;99.90
58554;DHT22;48119;53.218;6.576;2023-11-22T12:07:58;9.00;99.90
58554;DHT22;48119;53.218;6.576;2023-11-22T12:10:24;9.10;99.90
58554;DHT22;48119;53.218;6.576;2023-11-22T12:12:51;9.10;99.90
58554;DHT22;48119;53.218;6.576;2023-11-22T12:15:18;9.10;99.90
58554;DHT22;48119;53.218;6.576;2023-11-22T12:17:44;9.10;99.90
58554;DHT22;48119;53.218;6.576;2023-11-22T12:20:16;9.10;99.90
58554;DHT22;48119;53.218;6.576;2023-11-22T12:22:47;9.10;99.90
58554;DHT22;48119;53.218;6.576;2023-11-22T12:25:13;9.10;99.90
58554;DHT22;48119;53.218;6.576;2023-11-22T12:27:40;9.10;99.90
58554;DHT22;48119;53.218;6.576;2023-11-22T12:30:07;9.10;99.90
58554;DHT22;48119;53.218;6.576;2023-11-22T12:32:33;9.10;99.90
58554;DHT22;48119;53.218;6.576;2023-11-22T12:34:59;9.10;99.90
58554;DHT22;48119;53.218;6.576;2023-11-22T12:37:27;9.10;99.90
58554;DHT22;48119;53.218;6.576;2023-11-22T12:39:54;9.10;99.90
58554;DHT22;48119;53.218;6.576;2023-11-22T12:42:20;9.10;99.90
58554;DHT22;48119;53.218;6.576;2023-11-22T12:44:52;9.10;99.90
58554;DHT22;48119;53.218;6.576;2023-11-22T12:47:32;9.10;99.90
58554;DHT22;48119;53.218;6.576;2023-11-22T12:50:02;9.10;99.90
58554;DHT22;48119;53.218;6.576;2023-11-22T12:52:29;9.10;99.90
58554;DHT22;48119;53.218;6.576;2023-11-22T12:54:58;9.10;99.90
58554;DHT22;48119;53.218;6.576;2023-11-22T12:57:24;9.10;99.90
58554;DHT22;48119;53.218;6.576;2023-11-22T12:59:50;9.10;99.90
58554;DHT22;48119;53.218;6.576;2023-11-22T13:02:16;9.10;99.90
58554;DHT22;48119;53.218;6.576;2023-11-22T13:04:43;9.10;99.90
58554;DHT22;48119;53.218;6.576;2023-11-22T13:07:11;9.20;99.90
58554;DHT22;48119;53.218;6.576;2023-11-22T13:09:37;9.30;99.90
58554;DHT22;48119;53.218;6.576;2023-11-22T13:12:04;9.30;99.90
58554;DHT22;48119;53.218;6.576;2023-11-22T13:14:30;9.30;99.90
58554;DHT22;48119;53.218;6.576;2023-11-22T13:17:01;9.30;99.90
58554;DHT22;48119;53.218;6.576;2023-11-22T13:19:27;9.30;99.90
58554;DHT22;48119;53.218;6.576;2023-11-22T13:21:52;9.30;99.90
58554;DHT22;48119;53.218;6.576;2023-11-22T13:24:18;9.30;99.90
58554;DHT22;48119;53.218;6.576;2023-11-22T13:26:46;9.30;99.90
58554;DHT22;48119;53.218;6.576;2023-11-22T13:29:11;9.30;99.90
58554;DHT22;48119;53.218;6.576;2023-11-22T13:31:37;9.20;99.90
58554;DHT22;48119;53.218;6.576;2023-11-22T13:34:03;9.20;99.90
58554;DHT22;48119;53.218;6.576;2023-11-22T13:36:29;9.20;99.90
58554;DHT22;48119;53.218;6.576;2023-11-22T13:38:58;9.20;99.90
58554;DHT22;48119;53.218;6.576;2023-11-22T13:41:24;9.20;99.90
58554;DHT22;48119;53.218;6.576;2023-11-22T13:43:50;9.20;99.90
58554;DHT22;48119;53.218;6.576;2023-11-22T13:46:16;9.20;99.90
58554;DHT22;48119;53.218;6.576;2023-11-22T13:48:42;9.10;99.90
58554;DHT22;48119;53.218;6.576;2023-11-22T13:51:08;9.10;99.90
58554;DHT22;48119;53.218;6.576;2023-11-22T13:53:38;9.10;99.90
58554;DHT22;48119;53.218;6.576;2023-11-22T13:56:09;9.10;99.90
58554;DHT22;48119;53.218;6.576;2023-11-22T13:58:35;9.10;99.90
58554;DHT22;48119;53.218;6.576;2023-11-22T14:01:01;9.10;99.90
58554;DHT22;48119;53.218;6.576;2023-11-22T14:03:27;9.10;99.90
58554;DHT22;48119;53.218;6.576;2023-11-22T14:05:53;9.10;99.90
58554;DHT22;48119;53.218;6.576;2023-11-22T14:08:19;9.10;99.90
58554;DHT22;48119;53.218;6.576;2023-11-22T14:10:45;9.10;99.90
58554;DHT22;48119;53.218;6.576;2023-11-22T14:13:13;9.10;99.90
58554;DHT22;48119;53.218;6.576;2023-11-22T14:15:39;9.10;99.90
58554;DHT22;48119;53.218;6.576;2023-11-22T14:18:05;9.10;99.90
58554;DHT22;48119;53.218;6.576;2023-11-22T14:20:31;9.00;99.90
58554;DHT22;48119;53.218;6.576;2023-11-22T14:22:59;9.00;99.90
58554;DHT22;48119;53.218;6.576;2023-11-22T14:25:25;9.00;99.90
58554;DHT22;48119;53.218;6.576;2023-11-22T14:27:52;9.00;99.90
58554;DHT22;48119;53.218;6.576;2023-11-22T14:30:20;9.00;99.90
58554;DHT22;48119;53.218;6.576;2023-11-22T14:32:47;9.10;99.90
58554;DHT22;48119;53.218;6.576;2023-11-22T14:35:13;9.00;99.90
58554;DHT22;48119;53.218;6.576;2023-11-22T14:37:39;9.00;99.90
58554;DHT22;48119;53.218;6.576;2023-11-22T14:40:06;9.00;99.90
58554;DHT22;48119;53.218;6.576;2023-11-22T14:42:42;9.10;99.90
58554;DHT22;48119;53.218;6.576;2023-11-22T14:45:09;9.00;99.90
58554;DHT22;48119;53.218;6.576;2023-11-22T14:47:37;9.10;99.90
58554;DHT22;48119;53.218;6.576;2023-11-22T14:50:03;9.10;99.90
58554;DHT22;48119;53.218;6.576;2023-11-22T14:52:30;9.10;99.90
58554;DHT22;48119;53.218;6.576;2023-11-22T14:54:56;9.00;99.90
58554;DHT22;48119;53.218;6.576;2023-11-22T14:57:25;9.00;99.90
58554;DHT22;48119;53.218;6.576;2023-11-22T14:59:52;9.00;99.90
58554;DHT22;48119;53.218;6.576;2023-11-22T15:02:17;8.90;99.90
58554;DHT22;48119;53.218;6.576;2023-11-22T15:04:44;9.00;99.90
58554;DHT22;48119;53.218;6.576;2023-11-22T15:07:10;9.10;99.90
58554;DHT22;48119;53.218;6.576;2023-11-22T15:09:37;9.00;99.90
58554;DHT22;48119;53.218;6.576;2023-11-22T15:12:03;9.00;99.90
58554;DHT22;48119;53.218;6.576;2023-11-22T15:14:35;9.00;99.90
58554;DHT22;48119;53.218;6.576;2023-11-22T15:17:03;9.00;99.90
58554;DHT22;48119;53.218;6.576;2023-11-22T15:19:33;9.00;99.90
58554;DHT22;48119;53.218;6.576;2023-11-22T15:22:01;9.00;99.90
58554;DHT22;48119;53.218;6.576;2023-11-22T15:24:27;9.00;99.90
58554;DHT22;48119;53.218;6.576;2023-11-22T15:26:53;8.90;99.90
58554;DHT22;48119;53.218;6.576;2023-11-22T15:29:18;9.00;99.90
58554;DHT22;48119;53.218;6.576;2023-11-22T15:31:48;9.00;99.90
58554;DHT22;48119;53.218;6.576;2023-11-22T15:34:17;9.00;99.90
58554;DHT22;48119;53.218;6.576;2023-11-22T15:36:43;9.00;99.90
58554;DHT22;48119;53.218;6.576;2023-11-22T15:39:11;9.00;99.90
58554;DHT22;48119;53.218;6.576;2023-11-22T15:41:40;9.00;99.90
58554;DHT22;48119;53.218;6.576;2023-11-22T15:44:07;9.00;99.90
58554;DHT22;48119;53.218;6.576;2023-11-22T15:46:33;9.00;99.90